sensor_id;sensor_type;location;lat;lon;timestamp;P1;durP1;ratioP1;P2;durP2;ratioP2
23714;SDS011;12036;50.858;4.472;2022-11-20T00:00:03;39.00;;;18.73;;
23714;SDS011;12036;50.858;4.472;2022-11-20T00:02:29;37.13;;;18.95;;
23714;SDS011;12036;50.858;4.472;2022-11-20T00:04:55;38.28;;;18.42;;
23714;SDS011;12036;50.858;4.472;2022-11-20T00:07:20;38.25;;;18.15;;
23714;SDS011;12036;50.858;4.472;2022-11-20T00:09:46;36.50;;;19.20;;
23714;SDS011;12036;50.858;4.472;2022-11-20T00:12:11;39.13;;;19.10;;
23714;SDS011;12036;50.858;4.472;2022-11-20T00:14:38;36.97;;;17.38;;
23714;SDS011;12036;50.858;4.472;2022-11-20T00:17:04;33.10;;;17.35;;
23714;SDS011;12036;50.858;4.472;2022-11-20T00:19:29;34.67;;;18.17;;
23714;SDS011;12036;50.858;4.472;2022-11-20T00:21:55;34.10;;;17.75;;
23714;SDS011;12036;50.858;4.472;2022-11-20T00:24:20;37.47;;;18.15;;
23714;SDS011;12036;50.858;4.472;2022-11-20T00:26:46;32.70;;;17.33;;
23714;SDS011;12036;50.858;4.472;2022-11-20T00:29:12;36.03;;;16.63;;
23714;SDS011;12036;50.858;4.472;2022-11-20T00:31:37;36.70;;;19.30;;
23714;SDS011;12036;50.858;4.472;2022-11-20T00:34:03;39.88;;;18.70;;
23714;SDS011;12036;50.858;4.472;2022-11-20T00:36:31;40.40;;;19.02;;
23714;SDS011;12036;50.858;4.472;2022-11-20T00:38:58;41.42;;;19.75;;
23714;SDS011;12036;50.858;4.472;2022-11-20T00:41:25;38.53;;;18.90;;
23714;SDS011;12036;50.858;4.472;2022-11-20T00:43:52;41.38;;;19.42;;
23714;SDS011;12036;50.858;4.472;2022-11-20T00:46:20;33.60;;;18.05;;
23714;SDS011;12036;50.858;4.472;2022-11-20T00:48:47;38.00;;;19.02;;
23714;SDS011;12036;50.858;4.472;2022-11-20T00:51:14;36.22;;;18.25;;
23714;SDS011;12036;50.858;4.472;2022-11-20T00:53:41;40.42;;;19.45;;
23714;SDS011;12036;50.858;4.472;2022-11-20T00:56:09;34.42;;;18.45;;
23714;SDS011;12036;50.858;4.472;2022-11-20T00:58:38;38.78;;;19.98;;
23714;SDS011;12036;50.858;4.472;2022-11-20T01:01:18;40.35;;;17.80;;
23714;SDS011;12036;50.858;4.472;2022-11-20T01:03:49;39.40;;;17.17;;
23714;SDS011;12036;50.858;4.472;2022-11-20T01:06:20;43.03;;;17.65;;
23714;SDS011;12036;50.858;4.472;2022-11-20T01:08:48;38.28;;;18.38;;
23714;SDS011;12036;50.858;4.472;2022-11-20T01:11:16;36.88;;;17.55;;
23714;SDS011;12036;50.858;4.472;2022-11-20T01:13:44;37.80;;;19.33;;
23714;SDS011;12036;50.858;4.472;2022-11-20T01:16:14;38.83;;;18.80;;
23714;SDS011;12036;50.858;4.472;2022-11-20T01:18:43;34.17;;;18.45;;
23714;SDS011;12036;50.858;4.472;2022-11-20T01:21:12;41.53;;;20.20;;
23714;SDS011;12036;50.858;4.472;2022-11-20T01:23:42;47.40;;;20.87;;
23714;SDS011;12036;50.858;4.472;2022-11-20T01:26:12;42.60;;;18.88;;
23714;SDS011;12036;50.858;4.472;2022-11-20T01:28:41;40.25;;;20.05;;
23714;SDS011;12036;50.858;4.472;2022-11-20T01:31:15;38.40;;;19.83;;
23714;SDS011;12036;50.858;4.472;2022-11-20T01:33:41;43.22;;;20.40;;
23714;SDS011;12036;50.858;4.472;2022-11-20T01:36:07;44.80;;;20.48;;
23714;SDS011;12036;50.858;4.472;2022-11-20T01:38:34;42.55;;;20.05;;
23714;SDS011;12036;50.858;4.472;2022-11-20T01:41:00;49.92;;;21.30;;
23714;SDS011;12036;50.858;4.472;2022-11-20T01:43:26;47.92;;;21.35;;
23714;SDS011;12036;50.858;4.472;2022-11-20T01:48:30;51.88;;;21.85;;
23714;SDS011;12036;50.858;4.472;2022-11-20T01:51:23;44.60;;;20.38;;
23714;SDS011;12036;50.858;4.472;2022-11-20T01:54:04;42.10;;;19.90;;
23714;SDS011;12036;50.858;4.472;2022-11-20T01:56:35;47.17;;;21.27;;
23714;SDS011;12036;50.858;4.472;2022-11-20T01:59:03;47.13;;;21.40;;
23714;SDS011;12036;50.858;4.472;2022-11-20T02:01:32;39.22;;;20.23;;
23714;SDS011;12036;50.858;4.472;2022-11-20T02:03:58;51.33;;;20.88;;
23714;SDS011;12036;50.858;4.472;2022-11-20T02:06:29;44.30;;;20.67;;
23714;SDS011;12036;50.858;4.472;2022-11-20T02:09:16;50.97;;;21.10;;
23714;SDS011;12036;50.858;4.472;2022-11-20T02:11:42;49.22;;;22.20;;
23714;SDS011;12036;50.858;4.472;2022-11-20T02:14:07;41.45;;;20.63;;
23714;SDS011;12036;50.858;4.472;2022-11-20T02:16:35;42.30;;;21.52;;
23714;SDS011;12036;50.858;4.472;2022-11-20T02:19:05;42.55;;;20.50;;
23714;SDS011;12036;50.858;4.472;2022-11-20T02:24:30;50.53;;;20.88;;
23714;SDS011;12036;50.858;4.472;2022-11-20T02:27:00;43.72;;;21.48;;
23714;SDS011;12036;50.858;4.472;2022-11-20T02:29:44;46.70;;;21.27;;
23714;SDS011;12036;50.858;4.472;2022-11-20T02:32:23;42.83;;;20.40;;
23714;SDS011;12036;50.858;4.472;2022-11-20T02:34:51;49.78;;;21.45;;
23714;SDS011;12036;50.858;4.472;2022-11-20T02:37:16;50.60;;;22.02;;
23714;SDS011;12036;50.858;4.472;2022-11-20T02:39:44;45.35;;;20.40;;
23714;SDS011;12036;50.858;4.472;2022-11-20T02:42:12;49.55;;;22.30;;
23714;SDS011;12036;50.858;4.472;2022-11-20T02:44:37;46.78;;;21.08;;
23714;SDS011;12036;50.858;4.472;2022-11-20T02:47:03;47.58;;;22.02;;
23714;SDS011;12036;50.858;4.472;2022-11-20T02:49:29;45.47;;;20.70;;
23714;SDS011;12036;50.858;4.472;2022-11-20T02:51:54;45.45;;;20.73;;
23714;SDS011;12036;50.858;4.472;2022-11-20T02:54:20;44.22;;;20.70;;
23714;SDS011;12036;50.858;4.472;2022-11-20T02:56:45;47.08;;;21.60;;
23714;SDS011;12036;50.858;4.472;2022-11-20T02:59:11;53.33;;;21.83;;
23714;SDS011;12036;50.858;4.472;2022-11-20T03:01:37;53.95;;;23.42;;
23714;SDS011;12036;50.858;4.472;2022-11-20T03:04:02;47.40;;;22.45;;
23714;SDS011;12036;50.858;4.472;2022-11-20T03:06:28;49.92;;;22.65;;
23714;SDS011;12036;50.858;4.472;2022-11-20T03:08:54;51.20;;;22.38;;
23714;SDS011;12036;50.858;4.472;2022-11-20T03:11:19;51.13;;;21.48;;
23714;SDS011;12036;50.858;4.472;2022-11-20T03:13:45;52.25;;;23.35;;
23714;SDS011;12036;50.858;4.472;2022-11-20T03:16:18;50.83;;;22.70;;
23714;SDS011;12036;50.858;4.472;2022-11-20T03:18:45;52.95;;;22.67;;
23714;SDS011;12036;50.858;4.472;2022-11-20T03:21:11;44.15;;;21.17;;
23714;SDS011;12036;50.858;4.472;2022-11-20T03:23:38;53.42;;;23.05;;
23714;SDS011;12036;50.858;4.472;2022-11-20T03:26:12;45.65;;;20.98;;
23714;SDS011;12036;50.858;4.472;2022-11-20T03:28:41;45.03;;;21.00;;
23714;SDS011;12036;50.858;4.472;2022-11-20T03:31:11;44.28;;;19.80;;
23714;SDS011;12036;50.858;4.472;2022-11-20T03:33:39;38.83;;;17.08;;
23714;SDS011;12036;50.858;4.472;2022-11-20T03:36:07;35.05;;;16.33;;
23714;SDS011;12036;50.858;4.472;2022-11-20T03:38:35;28.25;;;13.02;;
23714;SDS011;12036;50.858;4.472;2022-11-20T03:41:02;25.08;;;12.32;;
23714;SDS011;12036;50.858;4.472;2022-11-20T03:43:29;30.85;;;12.57;;
23714;SDS011;12036;50.858;4.472;2022-11-20T03:45:56;32.28;;;14.30;;
23714;SDS011;12036;50.858;4.472;2022-11-20T03:48:21;31.00;;;14.98;;
23714;SDS011;12036;50.858;4.472;2022-11-20T03:50:47;29.95;;;14.25;;
23714;SDS011;12036;50.858;4.472;2022-11-20T03:53:13;31.88;;;15.27;;
23714;SDS011;12036;50.858;4.472;2022-11-20T03:55:40;31.38;;;15.32;;
23714;SDS011;12036;50.858;4.472;2022-11-20T03:58:05;33.42;;;14.93;;
23714;SDS011;12036;50.858;4.472;2022-11-20T04:00:31;33.90;;;14.50;;
23714;SDS011;12036;50.858;4.472;2022-11-20T04:03:00;37.65;;;15.88;;
23714;SDS011;12036;50.858;4.472;2022-11-20T04:05:26;38.42;;;16.02;;
23714;SDS011;12036;50.858;4.472;2022-11-20T04:07:52;35.28;;;15.48;;
23714;SDS011;12036;50.858;4.472;2022-11-20T04:10:17;36.67;;;15.88;;
23714;SDS011;12036;50.858;4.472;2022-11-20T04:12:43;32.33;;;14.55;;
23714;SDS011;12036;50.858;4.472;2022-11-20T04:15:08;32.05;;;15.88;;
23714;SDS011;12036;50.858;4.472;2022-11-20T04:17:34;34.95;;;15.35;;
23714;SDS011;12036;50.858;4.472;2022-11-20T04:20:00;36.47;;;15.77;;
23714;SDS011;12036;50.858;4.472;2022-11-20T04:22:26;30.95;;;13.68;;
23714;SDS011;12036;50.858;4.472;2022-11-20T04:24:52;29.25;;;13.52;;
23714;SDS011;12036;50.858;4.472;2022-11-20T04:27:18;36.22;;;15.73;;
23714;SDS011;12036;50.858;4.472;2022-11-20T04:29:43;42.13;;;17.60;;
23714;SDS011;12036;50.858;4.472;2022-11-20T04:32:09;40.88;;;17.63;;
23714;SDS011;12036;50.858;4.472;2022-11-20T04:34:34;38.97;;;17.27;;
23714;SDS011;12036;50.858;4.472;2022-11-20T04:37:00;36.75;;;16.27;;
23714;SDS011;12036;50.858;4.472;2022-11-20T04:39:26;41.65;;;16.38;;
23714;SDS011;12036;50.858;4.472;2022-11-20T04:41:51;39.42;;;16.77;;
23714;SDS011;12036;50.858;4.472;2022-11-20T04:44:37;39.00;;;15.13;;
23714;SDS011;12036;50.858;4.472;2022-11-20T04:47:02;34.38;;;14.93;;
23714;SDS011;12036;50.858;4.472;2022-11-20T04:49:28;40.53;;;17.05;;
23714;SDS011;12036;50.858;4.472;2022-11-20T04:51:54;34.38;;;15.80;;
23714;SDS011;12036;50.858;4.472;2022-11-20T04:54:19;40.22;;;16.17;;
23714;SDS011;12036;50.858;4.472;2022-11-20T04:56:47;30.15;;;14.63;;
23714;SDS011;12036;50.858;4.472;2022-11-20T04:59:13;32.55;;;14.35;;
23714;SDS011;12036;50.858;4.472;2022-11-20T05:01:38;39.58;;;14.93;;
23714;SDS011;12036;50.858;4.472;2022-11-20T05:04:04;32.35;;;15.60;;
23714;SDS011;12036;50.858;4.472;2022-11-20T05:06:30;33.63;;;15.40;;
23714;SDS011;12036;50.858;4.472;2022-11-20T05:08:56;34.83;;;15.52;;
23714;SDS011;12036;50.858;4.472;2022-11-20T05:11:22;36.35;;;16.05;;
23714;SDS011;12036;50.858;4.472;2022-11-20T05:13:49;35.97;;;15.52;;
23714;SDS011;12036;50.858;4.472;2022-11-20T05:16:16;35.58;;;16.00;;
23714;SDS011;12036;50.858;4.472;2022-11-20T05:18:45;36.92;;;15.98;;
23714;SDS011;12036;50.858;4.472;2022-11-20T05:21:11;41.75;;;17.52;;
23714;SDS011;12036;50.858;4.472;2022-11-20T05:23:38;43.10;;;18.20;;
23714;SDS011;12036;50.858;4.472;2022-11-20T05:26:05;42.92;;;17.20;;
23714;SDS011;12036;50.858;4.472;2022-11-20T05:28:31;44.42;;;17.20;;
23714;SDS011;12036;50.858;4.472;2022-11-20T05:31:08;47.10;;;18.33;;
23714;SDS011;12036;50.858;4.472;2022-11-20T05:33:35;40.53;;;17.52;;
23714;SDS011;12036;50.858;4.472;2022-11-20T05:36:02;48.20;;;19.20;;
23714;SDS011;12036;50.858;4.472;2022-11-20T05:38:28;49.42;;;20.08;;
23714;SDS011;12036;50.858;4.472;2022-11-20T05:40:54;41.60;;;17.40;;
23714;SDS011;12036;50.858;4.472;2022-11-20T05:43:20;46.33;;;18.08;;
23714;SDS011;12036;50.858;4.472;2022-11-20T05:45:55;49.15;;;17.70;;
23714;SDS011;12036;50.858;4.472;2022-11-20T05:48:20;43.03;;;17.58;;
23714;SDS011;12036;50.858;4.472;2022-11-20T05:50:47;44.53;;;18.30;;
23714;SDS011;12036;50.858;4.472;2022-11-20T05:53:13;44.25;;;17.25;;
23714;SDS011;12036;50.858;4.472;2022-11-20T05:55:38;47.28;;;19.13;;
23714;SDS011;12036;50.858;4.472;2022-11-20T05:58:04;46.13;;;18.10;;
23714;SDS011;12036;50.858;4.472;2022-11-20T06:00:30;51.72;;;18.98;;
23714;SDS011;12036;50.858;4.472;2022-11-20T06:02:55;50.15;;;17.65;;
23714;SDS011;12036;50.858;4.472;2022-11-20T06:05:21;55.40;;;19.35;;
23714;SDS011;12036;50.858;4.472;2022-11-20T06:07:47;54.33;;;19.17;;
23714;SDS011;12036;50.858;4.472;2022-11-20T06:10:12;58.55;;;20.88;;
23714;SDS011;12036;50.858;4.472;2022-11-20T06:12:38;60.85;;;20.25;;
23714;SDS011;12036;50.858;4.472;2022-11-20T06:15:04;51.20;;;18.13;;
23714;SDS011;12036;50.858;4.472;2022-11-20T06:17:30;60.70;;;19.83;;
23714;SDS011;12036;50.858;4.472;2022-11-20T06:19:56;60.38;;;20.15;;
23714;SDS011;12036;50.858;4.472;2022-11-20T06:22:21;56.53;;;19.45;;
23714;SDS011;12036;50.858;4.472;2022-11-20T06:24:47;65.93;;;20.63;;
23714;SDS011;12036;50.858;4.472;2022-11-20T06:27:13;65.93;;;21.42;;
23714;SDS011;12036;50.858;4.472;2022-11-20T06:29:38;53.53;;;19.38;;
23714;SDS011;12036;50.858;4.472;2022-11-20T06:32:04;54.95;;;20.05;;
23714;SDS011;12036;50.858;4.472;2022-11-20T06:34:29;62.78;;;20.42;;
23714;SDS011;12036;50.858;4.472;2022-11-20T06:36:55;65.68;;;20.10;;
23714;SDS011;12036;50.858;4.472;2022-11-20T06:39:20;57.28;;;19.45;;
23714;SDS011;12036;50.858;4.472;2022-11-20T06:41:46;53.90;;;18.95;;
23714;SDS011;12036;50.858;4.472;2022-11-20T06:44:12;61.08;;;20.23;;
23714;SDS011;12036;50.858;4.472;2022-11-20T06:46:37;55.97;;;18.70;;
23714;SDS011;12036;50.858;4.472;2022-11-20T06:49:03;57.00;;;19.40;;
23714;SDS011;12036;50.858;4.472;2022-11-20T06:51:28;62.83;;;20.42;;
23714;SDS011;12036;50.858;4.472;2022-11-20T06:53:54;63.72;;;19.50;;
23714;SDS011;12036;50.858;4.472;2022-11-20T06:56:20;56.90;;;18.95;;
23714;SDS011;12036;50.858;4.472;2022-11-20T06:58:45;54.90;;;19.58;;
23714;SDS011;12036;50.858;4.472;2022-11-20T07:01:12;53.63;;;19.42;;
23714;SDS011;12036;50.858;4.472;2022-11-20T07:03:39;63.80;;;19.50;;
23714;SDS011;12036;50.858;4.472;2022-11-20T07:06:05;63.80;;;20.17;;
23714;SDS011;12036;50.858;4.472;2022-11-20T07:08:31;56.80;;;19.60;;
23714;SDS011;12036;50.858;4.472;2022-11-20T07:11:02;68.65;;;20.83;;
23714;SDS011;12036;50.858;4.472;2022-11-20T07:15:58;58.55;;;19.02;;
23714;SDS011;12036;50.858;4.472;2022-11-20T07:18:26;66.93;;;20.92;;
23714;SDS011;12036;50.858;4.472;2022-11-20T07:20:51;57.63;;;20.30;;
23714;SDS011;12036;50.858;4.472;2022-11-20T07:23:17;66.35;;;21.73;;
23714;SDS011;12036;50.858;4.472;2022-11-20T07:25:42;67.35;;;20.10;;
23714;SDS011;12036;50.858;4.472;2022-11-20T07:28:08;66.97;;;19.15;;
23714;SDS011;12036;50.858;4.472;2022-11-20T07:30:35;57.47;;;19.38;;
23714;SDS011;12036;50.858;4.472;2022-11-20T07:33:01;53.67;;;20.83;;
23714;SDS011;12036;50.858;4.472;2022-11-20T07:35:27;64.80;;;19.42;;
23714;SDS011;12036;50.858;4.472;2022-11-20T07:37:52;68.90;;;20.90;;
23714;SDS011;12036;50.858;4.472;2022-11-20T07:40:18;70.28;;;22.17;;
23714;SDS011;12036;50.858;4.472;2022-11-20T07:42:48;68.03;;;20.95;;
23714;SDS011;12036;50.858;4.472;2022-11-20T07:45:18;56.20;;;19.40;;
23714;SDS011;12036;50.858;4.472;2022-11-20T07:47:44;54.13;;;18.48;;
23714;SDS011;12036;50.858;4.472;2022-11-20T07:50:10;56.85;;;20.80;;
23714;SDS011;12036;50.858;4.472;2022-11-20T07:52:37;58.45;;;20.17;;
23714;SDS011;12036;50.858;4.472;2022-11-20T07:55:02;57.53;;;20.10;;
23714;SDS011;12036;50.858;4.472;2022-11-20T07:57:28;55.70;;;20.25;;
23714;SDS011;12036;50.858;4.472;2022-11-20T07:59:54;65.32;;;20.55;;
23714;SDS011;12036;50.858;4.472;2022-11-20T08:02:19;56.67;;;20.95;;
23714;SDS011;12036;50.858;4.472;2022-11-20T08:04:45;62.92;;;20.33;;
23714;SDS011;12036;50.858;4.472;2022-11-20T08:07:10;66.13;;;20.42;;
23714;SDS011;12036;50.858;4.472;2022-11-20T08:09:36;67.03;;;21.45;;
23714;SDS011;12036;50.858;4.472;2022-11-20T08:12:02;59.45;;;20.83;;
23714;SDS011;12036;50.858;4.472;2022-11-20T08:14:46;66.40;;;22.02;;
23714;SDS011;12036;50.858;4.472;2022-11-20T08:17:11;64.75;;;21.02;;
23714;SDS011;12036;50.858;4.472;2022-11-20T08:19:37;69.07;;;22.05;;
23714;SDS011;12036;50.858;4.472;2022-11-20T08:22:03;61.80;;;21.35;;
23714;SDS011;12036;50.858;4.472;2022-11-20T08:24:28;59.20;;;20.13;;
23714;SDS011;12036;50.858;4.472;2022-11-20T08:26:56;63.78;;;20.05;;
23714;SDS011;12036;50.858;4.472;2022-11-20T08:29:23;63.67;;;21.10;;
23714;SDS011;12036;50.858;4.472;2022-11-20T08:31:49;64.88;;;20.25;;
23714;SDS011;12036;50.858;4.472;2022-11-20T08:34:14;60.55;;;19.52;;
23714;SDS011;12036;50.858;4.472;2022-11-20T08:36:40;57.80;;;19.50;;
23714;SDS011;12036;50.858;4.472;2022-11-20T08:39:05;58.05;;;20.55;;
23714;SDS011;12036;50.858;4.472;2022-11-20T08:41:31;65.80;;;19.70;;
23714;SDS011;12036;50.858;4.472;2022-11-20T08:44:05;54.67;;;18.33;;
23714;SDS011;12036;50.858;4.472;2022-11-20T08:46:35;58.55;;;20.20;;
23714;SDS011;12036;50.858;4.472;2022-11-20T08:49:03;63.28;;;19.02;;
23714;SDS011;12036;50.858;4.472;2022-11-20T08:51:33;63.80;;;19.88;;
23714;SDS011;12036;50.858;4.472;2022-11-20T08:53:59;52.63;;;18.10;;
23714;SDS011;12036;50.858;4.472;2022-11-20T08:56:25;51.70;;;18.50;;
23714;SDS011;12036;50.858;4.472;2022-11-20T08:58:51;53.13;;;19.00;;
23714;SDS011;12036;50.858;4.472;2022-11-20T09:01:18;57.80;;;18.15;;
23714;SDS011;12036;50.858;4.472;2022-11-20T09:03:45;54.03;;;17.92;;
23714;SDS011;12036;50.858;4.472;2022-11-20T09:06:11;52.17;;;18.45;;
23714;SDS011;12036;50.858;4.472;2022-11-20T09:08:36;52.53;;;17.58;;
23714;SDS011;12036;50.858;4.472;2022-11-20T09:11:02;52.88;;;18.55;;
23714;SDS011;12036;50.858;4.472;2022-11-20T09:13:29;46.88;;;17.08;;
23714;SDS011;12036;50.858;4.472;2022-11-20T09:15:58;45.97;;;17.45;;
23714;SDS011;12036;50.858;4.472;2022-11-20T09:18:26;51.97;;;17.98;;
23714;SDS011;12036;50.858;4.472;2022-11-20T09:20:56;48.40;;;16.20;;
23714;SDS011;12036;50.858;4.472;2022-11-20T09:23:26;45.92;;;16.85;;
23714;SDS011;12036;50.858;4.472;2022-11-20T09:25:55;48.67;;;17.65;;
23714;SDS011;12036;50.858;4.472;2022-11-20T09:28:24;45.13;;;17.40;;
23714;SDS011;12036;50.858;4.472;2022-11-20T09:30:50;52.13;;;18.05;;
23714;SDS011;12036;50.858;4.472;2022-11-20T09:33:16;41.40;;;17.15;;
23714;SDS011;12036;50.858;4.472;2022-11-20T09:35:42;42.72;;;17.35;;
23714;SDS011;12036;50.858;4.472;2022-11-20T09:38:08;41.33;;;16.75;;
23714;SDS011;12036;50.858;4.472;2022-11-20T09:40:36;41.42;;;16.33;;
23714;SDS011;12036;50.858;4.472;2022-11-20T09:56:39;38.35;;;14.50;;
23714;SDS011;12036;50.858;4.472;2022-11-20T09:59:14;34.08;;;13.50;;
23714;SDS011;12036;50.858;4.472;2022-11-20T10:02:01;36.83;;;15.52;;
23714;SDS011;12036;50.858;4.472;2022-11-20T10:04:36;37.03;;;13.90;;
23714;SDS011;12036;50.858;4.472;2022-11-20T10:07:12;36.00;;;13.70;;
23714;SDS011;12036;50.858;4.472;2022-11-20T10:09:43;33.95;;;13.63;;
23714;SDS011;12036;50.858;4.472;2022-11-20T10:31:39;24.42;;;11.50;;
23714;SDS011;12036;50.858;4.472;2022-11-20T10:34:23;27.70;;;11.10;;
23714;SDS011;12036;50.858;4.472;2022-11-20T10:37:00;20.25;;;8.85;;
23714;SDS011;12036;50.858;4.472;2022-11-20T10:42:11;17.40;;;8.80;;
23714;SDS011;12036;50.858;4.472;2022-11-20T10:44:42;17.58;;;8.75;;
23714;SDS011;12036;50.858;4.472;2022-11-20T10:47:26;22.27;;;8.40;;
23714;SDS011;12036;50.858;4.472;2022-11-20T10:49:55;18.48;;;6.88;;
23714;SDS011;12036;50.858;4.472;2022-11-20T10:55:10;15.23;;;7.15;;
23714;SDS011;12036;50.858;4.472;2022-11-20T10:58:07;13.90;;;6.25;;
23714;SDS011;12036;50.858;4.472;2022-11-20T11:00:39;18.05;;;6.50;;
23714;SDS011;12036;50.858;4.472;2022-11-20T11:03:14;13.25;;;4.93;;
23714;SDS011;12036;50.858;4.472;2022-11-20T11:05:50;8.25;;;4.50;;
23714;SDS011;12036;50.858;4.472;2022-11-20T11:08:24;14.23;;;4.82;;
23714;SDS011;12036;50.858;4.472;2022-11-20T11:10:58;15.50;;;4.68;;
23714;SDS011;12036;50.858;4.472;2022-11-20T11:13:28;16.10;;;4.35;;
23714;SDS011;12036;50.858;4.472;2022-11-20T11:15:55;7.53;;;3.55;;
23714;SDS011;12036;50.858;4.472;2022-11-20T11:18:29;10.07;;;3.20;;
23714;SDS011;12036;50.858;4.472;2022-11-20T11:20:57;10.10;;;3.33;;
23714;SDS011;12036;50.858;4.472;2022-11-20T11:26:07;6.80;;;3.25;;
23714;SDS011;12036;50.858;4.472;2022-11-20T11:28:57;5.30;;;2.85;;
23714;SDS011;12036;50.858;4.472;2022-11-20T11:31:33;5.00;;;2.70;;
23714;SDS011;12036;50.858;4.472;2022-11-20T11:34:03;4.93;;;2.67;;
23714;SDS011;12036;50.858;4.472;2022-11-20T11:36:36;8.10;;;3.20;;
23714;SDS011;12036;50.858;4.472;2022-11-20T11:39:03;5.47;;;2.85;;
23714;SDS011;12036;50.858;4.472;2022-11-20T11:41:31;8.55;;;3.08;;
23714;SDS011;12036;50.858;4.472;2022-11-20T11:47:03;3.95;;;2.67;;
23714;SDS011;12036;50.858;4.472;2022-11-20T11:49:33;5.63;;;2.67;;
23714;SDS011;12036;50.858;4.472;2022-11-20T11:52:01;11.20;;;2.90;;
23714;SDS011;12036;50.858;4.472;2022-11-20T11:54:54;6.28;;;2.72;;
23714;SDS011;12036;50.858;4.472;2022-11-20T12:00:15;7.53;;;2.35;;
23714;SDS011;12036;50.858;4.472;2022-11-20T12:07:49;6.97;;;2.13;;
23714;SDS011;12036;50.858;4.472;2022-11-20T12:16:07;7.45;;;2.35;;
23714;SDS011;12036;50.858;4.472;2022-11-20T12:18:40;5.10;;;2.25;;
23714;SDS011;12036;50.858;4.472;2022-11-20T12:43:43;4.93;;;2.65;;
23714;SDS011;12036;50.858;4.472;2022-11-20T12:49:38;4.93;;;3.00;;
23714;SDS011;12036;50.858;4.472;2022-11-20T13:00:19;5.63;;;3.28;;
23714;SDS011;12036;50.858;4.472;2022-11-20T13:03:00;6.90;;;2.90;;
23714;SDS011;12036;50.858;4.472;2022-11-20T13:06:04;6.63;;;2.80;;
23714;SDS011;12036;50.858;4.472;2022-11-20T13:08:41;5.90;;;2.63;;
23714;SDS011;12036;50.858;4.472;2022-11-20T13:11:16;6.40;;;2.92;;
23714;SDS011;12036;50.858;4.472;2022-11-20T13:16:45;6.10;;;2.88;;
23714;SDS011;12036;50.858;4.472;2022-11-20T13:19:16;5.72;;;3.00;;
23714;SDS011;12036;50.858;4.472;2022-11-20T13:21:46;6.53;;;3.03;;
23714;SDS011;12036;50.858;4.472;2022-11-20T13:29:34;4.80;;;2.50;;
23714;SDS011;12036;50.858;4.472;2022-11-20T13:32:06;6.78;;;3.03;;
23714;SDS011;12036;50.858;4.472;2022-11-20T13:34:38;5.25;;;2.85;;
23714;SDS011;12036;50.858;4.472;2022-11-20T13:37:04;6.78;;;2.97;;
23714;SDS011;12036;50.858;4.472;2022-11-20T13:39:31;6.40;;;2.88;;
23714;SDS011;12036;50.858;4.472;2022-11-20T13:44:41;7.32;;;3.30;;
23714;SDS011;12036;50.858;4.472;2022-11-20T13:50:13;6.22;;;2.63;;
23714;SDS011;12036;50.858;4.472;2022-11-20T13:52:43;6.60;;;2.60;;
23714;SDS011;12036;50.858;4.472;2022-11-20T14:00:57;3.92;;;2.05;;
23714;SDS011;12036;50.858;4.472;2022-11-20T14:03:27;4.78;;;1.88;;
23714;SDS011;12036;50.858;4.472;2022-11-20T14:06:02;4.55;;;2.17;;
23714;SDS011;12036;50.858;4.472;2022-11-20T14:11:17;3.10;;;1.90;;
23714;SDS011;12036;50.858;4.472;2022-11-20T14:13:58;5.03;;;2.20;;
23714;SDS011;12036;50.858;4.472;2022-11-20T14:16:25;3.03;;;2.20;;
23714;SDS011;12036;50.858;4.472;2022-11-20T14:18:53;4.10;;;2.55;;
23714;SDS011;12036;50.858;4.472;2022-11-20T14:21:24;4.72;;;2.70;;
23714;SDS011;12036;50.858;4.472;2022-11-20T14:24:06;4.47;;;2.42;;
23714;SDS011;12036;50.858;4.472;2022-11-20T14:26:35;5.95;;;2.28;;
23714;SDS011;12036;50.858;4.472;2022-11-20T14:29:03;3.28;;;2.33;;
23714;SDS011;12036;50.858;4.472;2022-11-20T14:31:29;6.75;;;2.45;;
23714;SDS011;12036;50.858;4.472;2022-11-20T14:33:55;6.15;;;2.60;;
23714;SDS011;12036;50.858;4.472;2022-11-20T14:36:22;2.65;;;2.22;;
23714;SDS011;12036;50.858;4.472;2022-11-20T14:38:50;3.08;;;2.15;;
23714;SDS011;12036;50.858;4.472;2022-11-20T14:41:17;4.47;;;2.65;;
23714;SDS011;12036;50.858;4.472;2022-11-20T14:43:52;3.65;;;2.47;;
23714;SDS011;12036;50.858;4.472;2022-11-20T14:46:21;3.05;;;2.30;;
23714;SDS011;12036;50.858;4.472;2022-11-20T14:48:53;3.33;;;2.03;;
23714;SDS011;12036;50.858;4.472;2022-11-20T14:51:39;3.60;;;2.47;;
23714;SDS011;12036;50.858;4.472;2022-11-20T14:54:20;5.80;;;2.33;;
23714;SDS011;12036;50.858;4.472;2022-11-20T14:56:58;3.97;;;2.65;;
23714;SDS011;12036;50.858;4.472;2022-11-20T14:59:33;4.10;;;2.58;;
23714;SDS011;12036;50.858;4.472;2022-11-20T15:02:00;7.72;;;2.80;;
23714;SDS011;12036;50.858;4.472;2022-11-20T15:04:30;7.30;;;3.28;;
23714;SDS011;12036;50.858;4.472;2022-11-20T15:06:56;4.30;;;3.17;;
23714;SDS011;12036;50.858;4.472;2022-11-20T15:09:23;5.00;;;3.10;;
23714;SDS011;12036;50.858;4.472;2022-11-20T15:11:53;3.80;;;3.28;;
23714;SDS011;12036;50.858;4.472;2022-11-20T15:14:24;6.18;;;3.30;;
23714;SDS011;12036;50.858;4.472;2022-11-20T15:16:52;8.00;;;3.67;;
23714;SDS011;12036;50.858;4.472;2022-11-20T15:19:19;4.45;;;3.33;;
23714;SDS011;12036;50.858;4.472;2022-11-20T15:21:47;4.97;;;3.85;;
23714;SDS011;12036;50.858;4.472;2022-11-20T15:24:14;7.78;;;3.67;;
23714;SDS011;12036;50.858;4.472;2022-11-20T15:26:39;8.52;;;3.63;;
23714;SDS011;12036;50.858;4.472;2022-11-20T15:29:13;9.68;;;3.30;;
23714;SDS011;12036;50.858;4.472;2022-11-20T15:31:43;7.75;;;3.83;;
23714;SDS011;12036;50.858;4.472;2022-11-20T15:34:16;5.75;;;3.85;;
23714;SDS011;12036;50.858;4.472;2022-11-20T15:36:42;8.57;;;4.60;;
23714;SDS011;12036;50.858;4.472;2022-11-20T15:39:08;7.90;;;4.13;;
23714;SDS011;12036;50.858;4.472;2022-11-20T15:41:36;10.38;;;4.75;;
23714;SDS011;12036;50.858;4.472;2022-11-20T15:44:02;6.38;;;4.47;;
23714;SDS011;12036;50.858;4.472;2022-11-20T15:46:30;14.57;;;5.70;;
23714;SDS011;12036;50.858;4.472;2022-11-20T15:49:03;7.93;;;4.55;;
23714;SDS011;12036;50.858;4.472;2022-11-20T15:51:37;7.70;;;4.47;;
23714;SDS011;12036;50.858;4.472;2022-11-20T15:54:09;7.55;;;4.05;;
23714;SDS011;12036;50.858;4.472;2022-11-20T15:56:37;11.73;;;4.20;;
23714;SDS011;12036;50.858;4.472;2022-11-20T15:59:03;7.75;;;3.97;;
23714;SDS011;12036;50.858;4.472;2022-11-20T16:01:29;12.10;;;4.65;;
23714;SDS011;12036;50.858;4.472;2022-11-20T16:03:55;12.00;;;4.82;;
23714;SDS011;12036;50.858;4.472;2022-11-20T16:06:21;6.95;;;4.05;;
23714;SDS011;12036;50.858;4.472;2022-11-20T16:08:46;7.50;;;4.22;;
23714;SDS011;12036;50.858;4.472;2022-11-20T16:11:12;12.65;;;4.47;;
23714;SDS011;12036;50.858;4.472;2022-11-20T16:13:40;12.65;;;4.10;;
23714;SDS011;12036;50.858;4.472;2022-11-20T16:16:34;15.45;;;4.68;;
23714;SDS011;12036;50.858;4.472;2022-11-20T16:19:01;10.95;;;4.65;;
23714;SDS011;12036;50.858;4.472;2022-11-20T16:21:27;13.45;;;4.40;;
23714;SDS011;12036;50.858;4.472;2022-11-20T16:23:57;20.40;;;4.47;;
23714;SDS011;12036;50.858;4.472;2022-11-20T16:26:27;19.30;;;3.78;;
23714;SDS011;12036;50.858;4.472;2022-11-20T16:28:53;9.82;;;3.72;;
23714;SDS011;12036;50.858;4.472;2022-11-20T16:31:19;9.32;;;3.75;;
23714;SDS011;12036;50.858;4.472;2022-11-20T16:33:49;17.45;;;4.80;;
23714;SDS011;12036;50.858;4.472;2022-11-20T16:36:15;21.30;;;4.07;;
23714;SDS011;12036;50.858;4.472;2022-11-20T16:38:42;13.15;;;4.10;;